createdAt,value
2017-09-25T00:00:42.940Z,14.71
2017-09-25T00:01:44.356Z,14.71
2017-09-25T00:02:45.779Z,14.84
2017-09-25T00:03:47.205Z,14.93
2017-09-25T00:04:48.625Z,14.61
2017-09-25T00:05:50.046Z,14.44
2017-09-25T00:06:51.475Z,14.57
2017-09-25T00:07:52.886Z,14.84
2017-09-25T00:08:54.319Z,14.84
2017-09-25T00:09:55.741Z,14.86
2017-09-25T00:10:57.161Z,14.88
2017-09-25T00:11:58.587Z,14.98
2017-09-25T00:13:00.006Z,14.95
2017-09-25T00:14:01.430Z,14.98
2017-09-25T00:15:02.861Z,14.91
2017-09-25T00:16:04.274Z,14.91
2017-09-25T00:17:05.690Z,14.90
2017-09-25T00:18:07.113Z,14.84
2017-09-25T00:19:08.534Z,14.91
2017-09-25T00:20:09.950Z,14.99
2017-09-25T00:21:11.372Z,15.01
2017-09-25T00:22:12.788Z,14.91
2017-09-25T00:23:14.210Z,14.99
2017-09-25T00:24:15.619Z,15.02
2017-09-25T00:25:17.042Z,15.05
2017-09-25T00:26:18.464Z,14.98
2017-09-25T00:27:19.880Z,15.05
2017-09-25T00:28:21.309Z,15.02
2017-09-25T00:29:22.728Z,15.06
2017-09-25T00:30:24.144Z,15.03
2017-09-25T00:31:25.568Z,15.01
2017-09-25T00:32:26.990Z,15.02
2017-09-25T00:33:28.413Z,15.05
2017-09-25T00:34:29.834Z,14.99
2017-09-25T00:35:31.246Z,15.11
2017-09-25T00:36:32.681Z,14.94
2017-09-25T00:37:34.090Z,14.98
2017-09-25T00:38:35.511Z,15.02
2017-09-25T00:39:36.979Z,15.03
2017-09-25T00:40:38.413Z,15.06
2017-09-25T00:41:39.837Z,15.12
2017-09-25T00:42:41.257Z,15.03
2017-09-25T00:43:42.681Z,15.02
2017-09-25T00:44:44.098Z,15.02
2017-09-25T00:45:45.521Z,15.02
2017-09-25T00:46:46.943Z,14.98
2017-09-25T00:47:48.360Z,15.06
2017-09-25T00:48:49.781Z,15.13
2017-09-25T00:49:51.191Z,15.01
2017-09-25T00:50:52.605Z,14.87
2017-09-25T00:51:54.021Z,15.01
2017-09-25T00:52:55.443Z,14.93
2017-09-25T00:53:56.853Z,14.91
2017-09-25T00:54:58.280Z,14.90
2017-09-25T00:55:59.699Z,14.86
2017-09-25T00:57:01.118Z,14.78
2017-09-25T00:58:02.537Z,14.75
2017-09-25T00:59:03.954Z,14.75
2017-09-25T01:00:05.372Z,14.72
2017-09-25T01:01:06.791Z,14.90
2017-09-25T01:02:08.202Z,14.84
2017-09-25T01:03:09.630Z,14.86
2017-09-25T01:04:11.053Z,14.94
2017-09-25T01:05:12.474Z,14.81
2017-09-25T01:06:13.902Z,14.83
2017-09-25T01:07:15.321Z,14.87
2017-09-25T01:08:16.748Z,14.90
2017-09-25T01:09:18.167Z,14.88
2017-09-25T01:10:19.595Z,15.01
2017-09-25T01:11:21.014Z,14.99
2017-09-25T01:12:22.431Z,15.02
2017-09-25T01:13:23.852Z,14.99
2017-09-25T01:14:25.267Z,15.08
2017-09-25T01:15:26.689Z,15.11
2017-09-25T01:16:28.111Z,15.05
2017-09-25T01:17:29.527Z,15.11
2017-09-25T01:18:30.952Z,15.23
2017-09-25T01:19:32.370Z,15.17
2017-09-25T01:20:33.789Z,15.05
2017-09-25T01:21:35.215Z,15.05
2017-09-25T01:22:36.649Z,15.12
2017-09-25T01:23:38.082Z,15.13
2017-09-25T01:24:39.496Z,15.30
2017-09-25T01:25:40.950Z,15.21
2017-09-25T01:26:42.368Z,15.24
2017-09-25T01:27:43.789Z,15.19
2017-09-25T01:28:45.205Z,14.98
2017-09-25T01:29:46.638Z,15.27
2017-09-25T01:30:48.057Z,15.11
2017-09-25T01:31:49.470Z,15.11
2017-09-25T01:32:50.897Z,15.15
2017-09-25T01:33:52.319Z,15.26
2017-09-25T01:34:53.736Z,15.28
2017-09-25T01:35:55.152Z,15.30
2017-09-25T01:36:56.574Z,15.09
2017-09-25T01:37:57.985Z,15.06
2017-09-25T01:38:59.407Z,15.02
2017-09-25T01:40:00.830Z,15.12
2017-09-25T01:41:02.254Z,15.15
2017-09-25T01:42:03.674Z,15.23
2017-09-25T01:43:05.095Z,15.12
2017-09-25T01:44:06.518Z,15.17
2017-09-25T01:45:07.938Z,15.23
2017-09-25T01:46:09.355Z,15.31
2017-09-25T01:47:10.783Z,15.23
2017-09-25T01:48:12.201Z,15.02
2017-09-25T01:49:13.620Z,15.06
2017-09-25T01:50:15.036Z,14.95
2017-09-25T01:51:16.457Z,14.99
2017-09-25T01:52:17.872Z,14.94
2017-09-25T01:53:19.285Z,15.19
2017-09-25T01:54:20.709Z,15.17
2017-09-25T01:55:22.119Z,15.11
2017-09-25T01:56:23.543Z,15.23
2017-09-25T01:57:24.961Z,15.17
2017-09-25T01:58:26.378Z,15.01
2017-09-25T01:59:27.794Z,15.06
2017-09-25T02:00:29.213Z,14.98
2017-09-25T02:01:30.627Z,14.84
2017-09-25T02:02:32.048Z,14.84
2017-09-25T02:03:33.470Z,14.83
2017-09-25T02:04:34.896Z,15.01
2017-09-25T02:05:36.316Z,14.99
2017-09-25T02:06:37.733Z,14.95
2017-09-25T02:07:39.201Z,14.69
2017-09-25T02:08:40.672Z,14.81
2017-09-25T02:09:42.097Z,14.84
2017-09-25T02:10:43.518Z,14.65
2017-09-25T02:11:44.985Z,14.67
2017-09-25T02:12:46.405Z,14.43
2017-09-25T02:13:47.820Z,14.64
2017-09-25T02:14:49.292Z,14.61
2017-09-25T02:15:50.722Z,14.62
2017-09-25T02:16:52.140Z,14.87
2017-09-25T02:17:53.558Z,14.91
2017-09-25T02:18:54.976Z,14.93
2017-09-25T02:19:56.389Z,14.84
2017-09-25T02:20:57.819Z,14.78
2017-09-25T02:21:59.238Z,14.86
2017-09-25T02:23:00.655Z,15.03
2017-09-25T02:24:02.079Z,14.95
2017-09-25T02:25:03.497Z,14.87
2017-09-25T02:26:04.919Z,14.83
2017-09-25T02:27:06.341Z,14.93
2017-09-25T02:28:07.767Z,14.98
2017-09-25T02:29:09.192Z,15.02
2017-09-25T02:30:10.614Z,15.05
2017-09-25T02:31:12.035Z,15.06
2017-09-25T02:32:13.454Z,14.78
2017-09-25T02:33:14.873Z,14.64
2017-09-25T02:34:16.298Z,14.75
2017-09-25T02:35:17.715Z,14.94
2017-09-25T02:36:19.129Z,14.98
2017-09-25T02:37:20.560Z,15.02
2017-09-25T02:38:21.980Z,14.86
2017-09-25T02:39:23.393Z,14.68
2017-09-25T02:40:24.814Z,14.61
2017-09-25T02:41:26.231Z,14.67
2017-09-25T02:42:27.647Z,14.80
2017-09-25T02:43:29.069Z,14.95
2017-09-25T02:44:30.483Z,14.90
2017-09-25T02:45:31.906Z,14.98
2017-09-25T02:46:33.331Z,14.86
2017-09-25T02:47:34.748Z,14.90
2017-09-25T02:48:36.169Z,14.91
2017-09-25T02:49:37.588Z,14.87
2017-09-25T02:50:39.013Z,14.80
2017-09-25T02:51:40.427Z,14.83
2017-09-25T02:52:41.852Z,14.84
2017-09-25T02:53:43.271Z,14.74
2017-09-25T02:54:44.693Z,14.78
2017-09-25T02:55:46.120Z,14.74
2017-09-25T02:56:47.540Z,14.95
2017-09-25T02:57:48.971Z,14.87
2017-09-25T02:58:50.393Z,14.87
2017-09-25T02:59:51.820Z,14.93
2017-09-25T03:00:53.241Z,15.05
2017-09-25T03:01:54.661Z,14.87
2017-09-25T03:02:56.083Z,14.94
2017-09-25T03:03:57.497Z,14.91
2017-09-25T03:04:58.913Z,14.95
2017-09-25T03:06:00.331Z,14.95
2017-09-25T03:07:01.752Z,15.01
2017-09-25T03:08:03.168Z,15.02
2017-09-25T03:09:04.592Z,15.02
2017-09-25T03:10:06.007Z,15.05
2017-09-25T03:11:07.432Z,14.99
2017-09-25T03:12:08.857Z,14.88
2017-09-25T03:13:10.270Z,14.88
2017-09-25T03:14:11.692Z,14.88
2017-09-25T03:15:13.110Z,14.71
2017-09-25T03:16:14.534Z,14.88
2017-09-25T03:17:15.954Z,14.93
2017-09-25T03:18:17.386Z,14.83
2017-09-25T03:19:18.796Z,14.84
2017-09-25T03:20:20.208Z,15.03
2017-09-25T03:21:21.635Z,14.94
2017-09-25T03:22:23.056Z,14.94
2017-09-25T03:23:24.466Z,15.03
2017-09-25T03:24:25.890Z,15.03
2017-09-25T03:25:27.306Z,14.99
2017-09-25T03:26:28.728Z,15.08
2017-09-25T03:27:30.146Z,15.03
2017-09-25T03:28:31.559Z,15.01
2017-09-25T03:29:32.982Z,14.90
2017-09-25T03:30:34.400Z,14.90
2017-09-25T03:31:35.828Z,14.84
2017-09-25T03:32:37.237Z,14.72
2017-09-25T03:33:38.659Z,14.81
2017-09-25T03:34:40.084Z,14.90
2017-09-25T03:35:41.508Z,14.84
2017-09-25T03:36:42.928Z,14.87
2017-09-25T03:37:44.352Z,14.93
2017-09-25T03:38:45.774Z,14.86
2017-09-25T03:39:47.231Z,14.87
2017-09-25T03:40:48.647Z,14.88
2017-09-25T03:41:50.078Z,14.72
2017-09-25T03:42:51.499Z,14.86
2017-09-25T03:43:53.014Z,14.90
2017-09-25T03:44:54.425Z,14.88
2017-09-25T03:45:55.845Z,14.90
2017-09-25T03:46:57.260Z,15.01
2017-09-25T03:47:58.676Z,14.94
2017-09-25T03:49:00.099Z,14.93
2017-09-25T03:50:01.513Z,14.74
2017-09-25T03:51:02.925Z,14.69
2017-09-25T03:52:04.337Z,14.84
2017-09-25T03:53:05.757Z,14.88
2017-09-25T03:54:07.183Z,14.67
2017-09-25T03:55:08.601Z,14.65
2017-09-25T03:56:10.022Z,14.54
2017-09-25T03:57:11.446Z,14.49
2017-09-25T03:58:12.863Z,14.53
2017-09-25T03:59:14.277Z,14.54
2017-09-25T04:00:16.947Z,14.61
2017-09-25T04:01:18.370Z,14.47
2017-09-25T04:02:19.791Z,14.32
2017-09-25T04:03:21.206Z,14.54
2017-09-25T04:04:22.626Z,14.56
2017-09-25T04:05:24.039Z,14.60
2017-09-25T04:06:25.456Z,14.75
2017-09-25T04:07:26.876Z,14.60
2017-09-25T04:08:28.291Z,14.46
2017-09-25T04:09:29.713Z,14.46
2017-09-25T04:10:31.126Z,14.54
2017-09-25T04:11:32.555Z,14.62
2017-09-25T04:12:33.968Z,14.44
2017-09-25T04:13:35.386Z,14.46
2017-09-25T04:14:36.801Z,14.43
2017-09-25T04:15:38.215Z,14.43
2017-09-25T04:16:39.637Z,14.31
2017-09-25T04:17:41.054Z,14.38
2017-09-25T04:18:42.473Z,14.32
2017-09-25T04:19:43.977Z,14.29
2017-09-25T04:20:45.397Z,14.25
2017-09-25T04:21:46.813Z,14.27
2017-09-25T04:22:48.233Z,14.17
2017-09-25T04:23:49.658Z,14.42
2017-09-25T04:24:51.939Z,14.20
2017-09-25T04:25:53.358Z,14.07
2017-09-25T04:26:55.728Z,14.19
2017-09-25T04:27:57.148Z,14.20
2017-09-25T04:28:59.224Z,14.31
2017-09-25T04:30:01.386Z,14.34
2017-09-25T04:31:03.469Z,14.42
2017-09-25T04:32:05.489Z,14.50
2017-09-25T04:33:07.783Z,14.54
2017-09-25T04:34:09.217Z,14.46
2017-09-25T04:35:11.197Z,14.35
2017-09-25T04:36:13.228Z,14.32
2017-09-25T04:37:15.607Z,14.37
2017-09-25T04:38:17.927Z,14.47
2017-09-25T04:39:19.359Z,14.50
2017-09-25T04:40:21.569Z,14.46
2017-09-25T04:41:23.716Z,14.61
2017-09-25T04:42:25.735Z,14.74
2017-09-25T04:43:27.733Z,14.69
2017-09-25T04:44:30.020Z,14.53
2017-09-25T04:45:32.236Z,14.61
2017-09-25T04:46:34.417Z,14.65
2017-09-25T04:47:36.736Z,14.80
2017-09-25T04:48:38.739Z,14.75
2017-09-25T04:49:41.130Z,14.81
2017-09-25T04:50:43.169Z,14.71
2017-09-25T04:51:44.592Z,14.74
2017-09-25T04:52:46.008Z,14.61
2017-09-25T04:53:47.441Z,14.69
2017-09-25T04:54:48.855Z,14.65
2017-09-25T04:55:50.267Z,14.74
2017-09-25T04:56:51.686Z,14.74
2017-09-25T04:57:53.105Z,14.81
2017-09-25T04:58:54.518Z,14.61
2017-09-25T04:59:55.940Z,14.64
2017-09-25T05:00:57.351Z,14.68
2017-09-25T05:01:58.780Z,14.56
2017-09-25T05:03:00.194Z,14.52
2017-09-25T05:04:01.616Z,14.52
2017-09-25T05:05:03.036Z,14.54
2017-09-25T05:06:04.456Z,14.44
2017-09-25T05:07:05.872Z,14.47
2017-09-25T05:08:07.290Z,14.46
2017-09-25T05:09:08.707Z,14.29
2017-09-25T05:10:10.124Z,14.47
2017-09-25T05:11:11.543Z,14.60
2017-09-25T05:12:12.959Z,14.65
2017-09-25T05:13:14.376Z,14.64
2017-09-25T05:14:15.792Z,14.67
2017-09-25T05:15:17.203Z,14.57
2017-09-25T05:16:18.619Z,14.80
2017-09-25T05:17:20.037Z,14.81
2017-09-25T05:18:21.452Z,14.75
2017-09-25T05:19:22.916Z,14.68
2017-09-25T05:20:24.351Z,14.62
2017-09-25T05:21:25.776Z,14.62
2017-09-25T05:22:27.201Z,14.61
2017-09-25T05:23:28.626Z,14.67
2017-09-25T05:24:30.040Z,14.60
2017-09-25T05:25:31.457Z,14.68
2017-09-25T05:26:32.873Z,14.67
2017-09-25T05:27:34.292Z,14.62
2017-09-25T05:28:35.712Z,14.71
2017-09-25T05:29:37.139Z,14.72
2017-09-25T05:30:38.556Z,14.60
2017-09-25T05:31:39.972Z,14.56
2017-09-25T05:32:41.394Z,14.56
2017-09-25T05:33:42.811Z,14.37
2017-09-25T05:34:44.225Z,14.49
2017-09-25T05:35:45.660Z,14.68
2017-09-25T05:36:47.076Z,14.65
2017-09-25T05:37:48.532Z,14.68
2017-09-25T05:38:49.923Z,14.57
2017-09-25T05:39:51.339Z,14.46
2017-09-25T05:40:52.758Z,14.32
2017-09-25T05:41:54.180Z,14.35
2017-09-25T05:42:55.609Z,14.35
2017-09-25T05:43:57.022Z,14.35
2017-09-25T05:44:58.436Z,14.29
2017-09-25T05:45:59.847Z,14.29
2017-09-25T05:47:01.271Z,14.46
2017-09-25T05:48:02.719Z,14.44
2017-09-25T05:49:04.106Z,14.42
2017-09-25T05:50:05.523Z,14.39
2017-09-25T05:51:06.949Z,14.54
2017-09-25T05:52:08.363Z,14.47
2017-09-25T05:53:09.780Z,14.35
2017-09-25T05:54:11.202Z,14.25
2017-09-25T05:55:12.616Z,14.37
2017-09-25T05:56:14.041Z,14.34
2017-09-25T05:57:15.457Z,14.38
2017-09-25T05:58:16.887Z,14.52
2017-09-25T05:59:18.305Z,14.44
2017-09-25T06:00:19.729Z,14.42
2017-09-25T06:01:21.146Z,14.21
2017-09-25T06:02:22.571Z,14.19
2017-09-25T06:03:23.990Z,14.35
2017-09-25T06:04:25.418Z,14.43
2017-09-25T06:05:26.836Z,14.54
2017-09-25T06:06:28.256Z,14.53
2017-09-25T06:07:29.672Z,14.52
2017-09-25T06:08:31.102Z,14.49
2017-09-25T06:09:32.517Z,14.57
2017-09-25T06:10:33.944Z,14.38
2017-09-25T06:11:35.364Z,14.35
2017-09-25T06:12:36.795Z,14.34
2017-09-25T06:13:38.216Z,14.32
2017-09-25T06:14:39.633Z,14.29
2017-09-25T06:15:41.063Z,14.47
2017-09-25T06:16:42.482Z,14.35
2017-09-25T06:17:43.902Z,14.32
2017-09-25T06:18:45.324Z,14.35
2017-09-25T06:19:46.743Z,14.34
2017-09-25T06:20:48.163Z,14.47
2017-09-25T06:21:49.583Z,14.46
2017-09-25T06:22:51.004Z,14.61
2017-09-25T06:23:52.424Z,14.56
2017-09-25T06:24:53.845Z,14.60
2017-09-25T06:25:55.275Z,14.65
2017-09-25T06:26:56.704Z,14.60
2017-09-25T06:27:58.122Z,14.60
2017-09-25T06:28:59.537Z,14.72
2017-09-25T06:30:00.969Z,14.81
2017-09-25T06:31:02.389Z,14.75
2017-09-25T06:32:03.812Z,14.74
2017-09-25T06:33:05.229Z,14.87
2017-09-25T06:34:06.646Z,14.86
2017-09-25T06:35:08.065Z,14.80
2017-09-25T06:36:09.497Z,14.90
2017-09-25T06:37:10.902Z,14.99
2017-09-25T06:38:12.335Z,14.95
2017-09-25T06:39:13.759Z,15.02
2017-09-25T06:40:15.181Z,15.12
2017-09-25T06:41:16.607Z,15.19
2017-09-25T06:42:18.028Z,15.30
2017-09-25T06:43:19.449Z,15.21
2017-09-25T06:44:21.782Z,14.99
2017-09-25T06:45:24.679Z,15.13
2017-09-25T06:46:26.093Z,15.15
2017-09-25T06:47:27.508Z,15.21
2017-09-25T06:48:28.930Z,15.30
2017-09-25T06:49:30.345Z,15.33
2017-09-25T06:50:31.763Z,15.20
2017-09-25T06:51:33.198Z,15.15
2017-09-25T06:52:34.621Z,15.17
2017-09-25T06:53:36.054Z,15.20
2017-09-25T06:54:37.468Z,15.21
2017-09-25T06:55:38.897Z,15.33
2017-09-25T06:56:42.376Z,15.33
2017-09-25T06:57:43.793Z,15.45
2017-09-25T06:58:45.213Z,15.41
2017-09-25T06:59:46.631Z,15.31
2017-09-25T07:00:48.053Z,15.42
2017-09-25T07:01:49.498Z,15.61
2017-09-25T07:02:50.888Z,15.67
2017-09-25T07:03:52.313Z,15.57
2017-09-25T07:04:53.748Z,15.68
2017-09-25T07:05:55.169Z,15.85
2017-09-25T07:06:56.594Z,15.78
2017-09-25T07:07:58.017Z,15.70
2017-09-25T07:08:59.442Z,15.70
2017-09-25T07:10:00.870Z,15.63
2017-09-25T07:11:02.294Z,15.67
2017-09-25T07:12:03.720Z,15.49
2017-09-25T07:13:05.147Z,15.49
2017-09-25T07:14:06.575Z,15.66
2017-09-25T07:15:08.005Z,15.63
2017-09-25T07:16:09.440Z,15.67
2017-09-25T07:17:10.866Z,15.54
2017-09-25T07:18:12.294Z,15.52
2017-09-25T07:19:13.715Z,15.56
2017-09-25T07:20:15.137Z,15.60
2017-09-25T07:21:16.563Z,15.41
2017-09-25T07:22:17.985Z,15.45
2017-09-25T07:23:19.410Z,15.42
2017-09-25T07:24:20.831Z,15.41
2017-09-25T07:25:22.249Z,15.54
2017-09-25T07:26:23.673Z,15.54
2017-09-25T07:27:25.100Z,15.49
2017-09-25T07:28:26.556Z,15.52
2017-09-25T07:29:27.968Z,15.39
2017-09-25T07:30:29.391Z,15.19
2017-09-25T07:31:30.809Z,15.20
2017-09-25T07:32:32.240Z,15.38
2017-09-25T07:33:33.665Z,15.39
2017-09-25T07:34:35.114Z,15.48
2017-09-25T07:35:36.495Z,15.26
2017-09-25T07:36:37.917Z,15.21
2017-09-25T07:37:39.340Z,15.03
2017-09-25T07:38:40.762Z,15.09
2017-09-25T07:39:42.182Z,15.06
2017-09-25T07:40:43.600Z,15.13
2017-09-25T07:41:45.017Z,15.12
2017-09-25T07:42:46.443Z,15.17
2017-09-25T07:43:47.858Z,15.09
2017-09-25T07:44:49.274Z,15.20
2017-09-25T07:45:50.697Z,15.36
2017-09-25T07:46:52.122Z,15.42
2017-09-25T07:47:53.545Z,15.38
2017-09-25T07:48:54.975Z,15.36
2017-09-25T07:49:56.398Z,15.48
2017-09-25T07:50:57.821Z,15.43
2017-09-25T07:51:59.241Z,15.39
2017-09-25T07:53:00.665Z,15.41
2017-09-25T07:54:02.088Z,15.46
2017-09-25T07:55:03.509Z,15.51
2017-09-25T07:56:04.929Z,15.33
2017-09-25T07:57:06.359Z,15.27
2017-09-25T07:58:07.805Z,15.41
2017-09-25T07:59:09.224Z,15.36
2017-09-25T08:00:10.648Z,15.38
2017-09-25T08:01:12.081Z,15.48
2017-09-25T08:02:13.500Z,15.60
2017-09-25T08:03:14.924Z,15.66
2017-09-25T08:04:16.341Z,15.70
2017-09-25T08:05:17.768Z,15.78
2017-09-25T08:06:19.198Z,15.70
2017-09-25T08:07:20.672Z,15.61
2017-09-25T08:08:22.093Z,15.60
2017-09-25T08:09:23.521Z,15.63
2017-09-25T08:10:24.938Z,15.61
2017-09-25T08:11:26.359Z,15.60
2017-09-25T08:12:27.782Z,15.79
2017-09-25T08:13:29.214Z,15.81
2017-09-25T08:14:30.628Z,15.81
2017-09-25T08:15:32.053Z,16.00
2017-09-25T08:16:33.469Z,16.03
2017-09-25T08:17:35.065Z,15.97
2017-09-25T08:18:36.499Z,16.09
2017-09-25T08:19:37.921Z,16.07
2017-09-25T08:20:39.348Z,16.09
2017-09-25T08:21:40.768Z,16.01
2017-09-25T08:22:42.194Z,16.23
2017-09-25T08:23:43.616Z,16.11
2017-09-25T08:24:45.072Z,16.11
2017-09-25T08:25:46.493Z,16.18
2017-09-25T08:26:47.920Z,16.14
2017-09-25T08:27:49.358Z,16.27
2017-09-25T08:28:50.810Z,16.26
2017-09-25T08:29:52.228Z,16.49
2017-09-25T08:30:53.657Z,16.60
2017-09-25T08:31:55.079Z,16.73
2017-09-25T08:32:56.506Z,16.68
2017-09-25T08:33:57.929Z,16.71
2017-09-25T08:34:59.350Z,16.58
2017-09-25T08:36:00.772Z,16.58
2017-09-25T08:37:02.191Z,16.71
2017-09-25T08:38:03.615Z,16.85
2017-09-25T08:39:05.040Z,16.80
2017-09-25T08:40:06.460Z,16.75
2017-09-25T08:41:07.883Z,16.80
2017-09-25T08:42:09.312Z,16.93
2017-09-25T08:43:10.728Z,16.96
2017-09-25T08:44:12.148Z,16.83
2017-09-25T08:45:13.567Z,16.88
2017-09-25T08:46:14.987Z,16.74
2017-09-25T08:47:16.421Z,16.78
2017-09-25T08:48:17.852Z,17.00
2017-09-25T08:49:19.274Z,16.90
2017-09-25T08:50:20.699Z,17.08
2017-09-25T08:51:22.116Z,17.23
2017-09-25T08:52:23.539Z,17.13
2017-09-25T08:53:24.974Z,17.20
2017-09-25T08:54:26.398Z,17.46
2017-09-25T08:55:27.817Z,17.25
2017-09-25T08:56:29.238Z,17.26
2017-09-25T08:57:30.656Z,17.38
2017-09-25T08:58:32.096Z,17.33
2017-09-25T08:59:33.515Z,17.44
2017-09-25T09:00:34.937Z,17.43
2017-09-25T09:01:36.366Z,17.46
2017-09-25T09:02:37.782Z,17.66
2017-09-25T09:03:39.268Z,17.78
2017-09-25T09:04:40.695Z,17.73
2017-09-25T09:05:42.121Z,17.78
2017-09-25T09:06:43.546Z,17.70
2017-09-25T09:07:44.968Z,18.02
2017-09-25T09:08:46.410Z,18.03
2017-09-25T09:09:47.837Z,17.94
2017-09-25T09:10:49.329Z,18.02
2017-09-25T09:11:50.771Z,17.99
2017-09-25T09:12:52.196Z,17.82
2017-09-25T09:13:53.621Z,17.81
2017-09-25T09:14:55.050Z,18.02
2017-09-25T09:15:56.469Z,18.24
2017-09-25T09:16:57.902Z,18.34
2017-09-25T09:17:59.360Z,18.39
2017-09-25T09:19:00.799Z,18.50
2017-09-25T09:20:02.225Z,18.72
2017-09-25T09:21:03.655Z,18.74
2017-09-25T09:22:05.088Z,18.79
2017-09-25T09:23:06.530Z,18.68
2017-09-25T09:24:07.956Z,18.67
2017-09-25T09:25:09.409Z,18.58
2017-09-25T09:26:10.836Z,18.43
2017-09-25T09:27:12.261Z,18.44
2017-09-25T09:28:13.694Z,18.33
2017-09-25T09:29:15.109Z,18.19
2017-09-25T09:30:16.539Z,18.34
2017-09-25T09:31:17.963Z,18.37
2017-09-25T09:32:19.392Z,18.34
2017-09-25T09:33:20.826Z,18.22
2017-09-25T09:34:22.247Z,18.21
2017-09-25T09:35:23.673Z,18.17
2017-09-25T09:36:25.093Z,18.33
2017-09-25T09:37:26.523Z,18.36
2017-09-25T09:38:27.952Z,18.09
2017-09-25T09:39:29.383Z,18.04
2017-09-25T09:40:30.924Z,18.47
2017-09-25T09:41:32.181Z,18.64
2017-09-25T09:42:33.604Z,18.80
2017-09-25T09:43:35.027Z,18.87
2017-09-25T09:44:36.454Z,18.94
2017-09-25T09:45:37.879Z,19.06
2017-09-25T09:46:39.316Z,19.02
2017-09-25T09:47:40.737Z,19.02
2017-09-25T09:48:42.160Z,18.76
2017-09-25T09:49:43.586Z,18.92
2017-09-25T09:50:45.003Z,18.97
2017-09-25T09:51:46.436Z,18.98
2017-09-25T09:52:47.855Z,19.02
2017-09-25T09:53:49.278Z,19.02
2017-09-25T09:54:50.727Z,19.14
2017-09-25T09:55:52.148Z,19.13
2017-09-25T09:56:54.468Z,19.10
2017-09-25T09:57:55.892Z,19.20
2017-09-25T09:58:57.327Z,19.25
2017-09-25T09:59:58.757Z,19.28
2017-09-25T10:01:00.179Z,19.28
2017-09-25T10:02:01.612Z,19.18
2017-09-25T10:03:03.036Z,19.10
2017-09-25T10:04:04.461Z,18.82
2017-09-25T10:05:05.890Z,18.84
2017-09-25T10:06:07.321Z,18.97
2017-09-25T10:07:08.746Z,18.97
2017-09-25T10:08:10.176Z,18.86
2017-09-25T10:09:11.606Z,19.02
2017-09-25T10:10:13.054Z,18.99
2017-09-25T10:11:14.475Z,18.91
2017-09-25T10:12:15.905Z,18.99
2017-09-25T10:13:17.360Z,18.95
2017-09-25T10:14:18.809Z,19.01
2017-09-25T10:15:20.241Z,18.86
2017-09-25T10:16:21.669Z,18.76
2017-09-25T10:17:23.103Z,19.05
2017-09-25T10:18:24.640Z,19.08
2017-09-25T10:19:26.065Z,18.91
2017-09-25T10:20:27.492Z,19.08
2017-09-25T10:21:28.917Z,19.13
2017-09-25T10:22:30.338Z,19.06
2017-09-25T10:23:31.770Z,19.14
2017-09-25T10:24:33.313Z,19.33
2017-09-25T10:25:34.752Z,19.50
2017-09-25T10:26:36.209Z,19.28
2017-09-25T10:27:37.634Z,19.23
2017-09-25T10:28:39.073Z,19.17
2017-09-25T10:29:40.500Z,19.43
2017-09-25T10:30:41.927Z,19.48
2017-09-25T10:31:43.350Z,19.50
2017-09-25T10:32:44.872Z,19.47
2017-09-25T10:33:46.294Z,19.39
2017-09-25T10:34:47.713Z,19.43
2017-09-25T10:35:49.144Z,19.35
2017-09-25T10:36:50.638Z,19.53
2017-09-25T10:37:52.065Z,19.75
2017-09-25T10:38:53.488Z,19.97
2017-09-25T10:39:54.921Z,20.13
2017-09-25T10:40:56.346Z,20.06
2017-09-25T10:41:57.792Z,19.97
2017-09-25T10:42:59.293Z,19.93
2017-09-25T10:44:00.864Z,20.03
2017-09-25T10:45:02.288Z,20.08
2017-09-25T10:46:03.712Z,19.91
2017-09-25T10:47:05.140Z,19.75
2017-09-25T10:48:06.563Z,20.00
2017-09-25T10:49:07.993Z,20.03
2017-09-25T10:50:09.431Z,20.12
2017-09-25T10:51:10.850Z,20.28
2017-09-25T10:52:12.276Z,20.31
2017-09-25T10:53:13.715Z,20.06
2017-09-25T10:54:15.179Z,20.00
2017-09-25T10:55:16.613Z,19.86
2017-09-25T10:56:18.038Z,20.02
2017-09-25T10:57:19.466Z,20.27
2017-09-25T10:58:20.931Z,19.73
2017-09-25T10:59:22.357Z,19.50
2017-09-25T11:00:23.786Z,19.70
2017-09-25T11:01:25.297Z,20.09
2017-09-25T11:02:26.833Z,19.98
2017-09-25T11:03:28.260Z,20.02
2017-09-25T11:04:29.691Z,20.03
2017-09-25T11:05:31.118Z,19.86
2017-09-25T11:06:32.544Z,19.79
2017-09-25T11:07:33.969Z,19.79
2017-09-25T11:08:35.407Z,19.58
2017-09-25T11:09:36.868Z,19.58
2017-09-25T11:10:38.293Z,19.61
2017-09-25T11:11:39.726Z,19.54
2017-09-25T11:12:41.157Z,19.93
2017-09-25T11:13:42.584Z,19.87
2017-09-25T11:14:44.016Z,19.83
2017-09-25T11:15:45.444Z,19.55
2017-09-25T11:16:46.886Z,19.40
2017-09-25T11:17:48.335Z,19.60
2017-09-25T11:18:49.757Z,19.50
2017-09-25T11:19:51.187Z,19.70
2017-09-25T11:20:52.625Z,19.68
2017-09-25T11:21:54.050Z,19.57
2017-09-25T11:22:55.475Z,19.60
2017-09-25T11:23:56.902Z,19.54
2017-09-25T11:24:58.335Z,19.55
2017-09-25T11:25:59.764Z,19.55
2017-09-25T11:27:01.187Z,19.46
2017-09-25T11:28:02.626Z,19.29
2017-09-25T11:29:04.064Z,19.31
2017-09-25T11:30:05.489Z,19.38
2017-09-25T11:31:06.923Z,19.38
2017-09-25T11:32:08.364Z,19.10
2017-09-25T11:33:09.794Z,19.10
2017-09-25T11:34:11.220Z,18.95
2017-09-25T11:35:12.638Z,19.14
2017-09-25T11:36:14.069Z,18.98
2017-09-25T11:37:15.508Z,19.31
2017-09-25T11:38:16.935Z,19.48
2017-09-25T11:39:18.362Z,19.65
2017-09-25T11:40:19.793Z,20.06
2017-09-25T11:41:21.233Z,20.50
2017-09-25T11:42:22.644Z,20.89
2017-09-25T11:43:24.075Z,21.05
2017-09-25T11:44:25.500Z,21.24
2017-09-25T11:45:26.924Z,21.38
2017-09-25T11:46:28.352Z,21.20
2017-09-25T11:47:29.798Z,21.13
2017-09-25T11:48:31.227Z,21.09
2017-09-25T11:49:32.648Z,21.19
2017-09-25T11:50:34.075Z,21.59
2017-09-25T11:51:35.495Z,21.72
2017-09-25T11:52:36.919Z,22.14
2017-09-25T11:53:38.345Z,22.47
2017-09-25T11:54:39.772Z,22.49
2017-09-25T11:55:41.196Z,22.57
2017-09-25T11:56:42.622Z,22.59
2017-09-25T11:57:44.055Z,22.87
2017-09-25T11:58:45.482Z,22.72
2017-09-25T11:59:46.922Z,22.22
2017-09-25T12:00:48.353Z,21.95
2017-09-25T12:01:49.787Z,22.19
2017-09-25T12:02:51.221Z,21.85
2017-09-25T12:03:52.655Z,21.61
2017-09-25T12:04:54.107Z,21.30
2017-09-25T12:05:55.545Z,21.42
2017-09-25T12:06:56.983Z,21.67
2017-09-25T12:07:58.412Z,22.13
2017-09-25T12:08:59.847Z,22.29
2017-09-25T12:10:01.273Z,22.12
2017-09-25T12:11:02.703Z,21.81
2017-09-25T12:12:04.131Z,21.98
2017-09-25T12:13:05.556Z,22.06
2017-09-25T12:14:06.985Z,22.31
2017-09-25T12:15:08.424Z,22.44
2017-09-25T12:16:09.854Z,22.46
2017-09-25T12:17:11.286Z,22.44
2017-09-25T12:18:12.714Z,21.95
2017-09-25T12:19:14.147Z,21.90
2017-09-25T12:20:15.599Z,22.16
2017-09-25T12:21:17.029Z,22.53
2017-09-25T12:22:18.455Z,22.23
2017-09-25T12:23:19.882Z,21.57
2017-09-25T12:24:21.308Z,20.99
2017-09-25T12:25:22.729Z,21.04
2017-09-25T12:26:24.167Z,20.72
2017-09-25T12:27:25.600Z,20.65
2017-09-25T12:28:27.033Z,21.13
2017-09-25T12:29:28.468Z,21.44
2017-09-25T12:30:29.890Z,21.44
2017-09-25T12:31:31.387Z,21.35
2017-09-25T12:32:32.854Z,21.29
2017-09-25T12:33:34.294Z,21.11
2017-09-25T12:34:35.725Z,21.20
2017-09-25T12:35:37.177Z,21.13
2017-09-25T12:36:38.619Z,20.96
2017-09-25T12:37:40.046Z,21.04
2017-09-25T12:38:41.470Z,20.95
2017-09-25T12:39:42.915Z,21.46
2017-09-25T12:40:44.343Z,21.92
2017-09-25T12:41:45.780Z,21.97
2017-09-25T12:42:47.231Z,22.23
2017-09-25T12:43:48.666Z,22.20
2017-09-25T12:44:50.107Z,22.14
2017-09-25T12:45:51.545Z,21.81
2017-09-25T12:46:52.982Z,21.83
2017-09-25T12:47:54.414Z,22.13
2017-09-25T12:48:55.853Z,22.28
2017-09-25T12:49:57.290Z,22.52
2017-09-25T12:50:58.731Z,22.82
2017-09-25T12:52:00.165Z,22.37
2017-09-25T12:53:01.601Z,22.44
2017-09-25T12:54:03.024Z,22.75
2017-09-25T12:55:04.460Z,22.31
2017-09-25T12:56:05.892Z,22.35
2017-09-25T12:57:07.336Z,22.29
2017-09-25T12:58:08.789Z,22.80
2017-09-25T12:59:10.218Z,22.89
2017-09-25T13:00:11.739Z,23.64
2017-09-25T13:01:13.174Z,25.67
2017-09-25T13:02:14.615Z,29.19
2017-09-25T13:03:16.048Z,31.24
2017-09-25T13:04:17.483Z,31.96
2017-09-25T13:05:18.913Z,33.04
2017-09-25T13:06:20.348Z,34.48
2017-09-25T13:07:21.776Z,34.66
2017-09-25T13:08:23.208Z,35.28
2017-09-25T13:09:24.640Z,34.80
2017-09-25T13:10:26.069Z,34.50
2017-09-25T13:11:27.508Z,34.99